EVA160 RCTP-RKSI
Flight info
| Callsign | EVA160 |
|---|---|
| Flight time | 1h 51m |
| Altitude | 37000 |
| Route | PIANO L3 SALMI B576 CJU Y722 OLMEN |
| Aircraft | B77W/H-SDE1E2E3FGHIJ1J3J4J5LM1P2RWXYZ/LB1D1 |
Departure
| Time | 2026-05-07 07:49 |
|---|---|
| Airport | Taiwan Taoyuan International Airport (RCTP) |
Arrival
| Time | 2026-05-07 09:41 |
|---|---|
| Airport | Incheon International Airport (RKSI) |
| Time | Latitude | Longitude | Altitude | Speed | Heading |
|---|---|---|---|---|---|
| 2026-05-07 07:30 | 25.07599 | 121.23439 | 106 ft | 0 kts | 319° |
| 2026-05-07 07:39 | 25.07598 | 121.23441 | 106 ft | 2 kts | 319° |
| 2026-05-07 07:39 | 25.07585 | 121.23453 | 107 ft | 2 kts | 317° |
| 2026-05-07 07:39 | 25.07574 | 121.23466 | 103 ft | 2 kts | 313° |
| 2026-05-07 07:39 | 25.07563 | 121.23480 | 104 ft | 2 kts | 308° |
| 2026-05-07 07:40 | 25.07553 | 121.23494 | 105 ft | 2 kts | 302° |
| 2026-05-07 07:40 | 25.07545 | 121.23510 | 103 ft | 2 kts | 292° |
| 2026-05-07 07:40 | 25.07540 | 121.23528 | 107 ft | 2 kts | 278° |
| 2026-05-07 07:40 | 25.07539 | 121.23546 | 106 ft | 2 kts | 256° |
| 2026-05-07 07:41 | 25.07545 | 121.23563 | 105 ft | 2 kts | 235° |
| 2026-05-07 07:41 | 25.07549 | 121.23569 | 105 ft | 0 kts | 229° |
| 2026-05-07 07:42 | 25.07540 | 121.23557 | 105 ft | 5 kts | 229° |
| 2026-05-07 07:43 | 25.07498 | 121.23503 | 107 ft | 11 kts | 229° |
| 2026-05-07 07:43 | 25.07447 | 121.23436 | 108 ft | 11 kts | 229° |
| 2026-05-07 07:43 | 25.07394 | 121.23370 | 108 ft | 11 kts | 229° |
| 2026-05-07 07:43 | 25.07360 | 121.23325 | 108 ft | 11 kts | 229° |
| 2026-05-07 07:44 | 25.07308 | 121.23258 | 108 ft | 11 kts | 229° |
| 2026-05-07 07:44 | 25.07260 | 121.23201 | 108 ft | 10 kts | 219° |
| 2026-05-07 07:44 | 25.07196 | 121.23198 | 107 ft | 10 kts | 158° |
| 2026-05-07 07:44 | 25.07142 | 121.23241 | 108 ft | 9 kts | 141° |
| 2026-05-07 07:45 | 25.07086 | 121.23269 | 106 ft | 9 kts | 181° |
| 2026-05-07 07:45 | 25.07031 | 121.23233 | 106 ft | 10 kts | 224° |
| 2026-05-07 07:45 | 25.06984 | 121.23175 | 108 ft | 10 kts | 229° |
| 2026-05-07 07:45 | 25.06913 | 121.23085 | 107 ft | 24 kts | 229° |
| 2026-05-07 07:46 | 25.06787 | 121.22925 | 106 ft | 28 kts | 229° |
| 2026-05-07 07:46 | 25.06658 | 121.22762 | 107 ft | 28 kts | 229° |
| 2026-05-07 07:46 | 25.06529 | 121.22599 | 107 ft | 28 kts | 229° |
| 2026-05-07 07:46 | 25.06401 | 121.22436 | 107 ft | 26 kts | 229° |
| 2026-05-07 07:47 | 25.06338 | 121.22356 | 107 ft | 12 kts | 229° |
| 2026-05-07 07:47 | 25.06285 | 121.22288 | 107 ft | 12 kts | 229° |
| 2026-05-07 07:47 | 25.06229 | 121.22254 | 108 ft | 10 kts | 178° |
| 2026-05-07 07:47 | 25.06164 | 121.22291 | 103 ft | 12 kts | 142° |
| 2026-05-07 07:48 | 25.06115 | 121.22345 | 103 ft | 10 kts | 117° |
| 2026-05-07 07:48 | 25.06133 | 121.22416 | 102 ft | 10 kts | 54° |
| 2026-05-07 07:48 | 25.06150 | 121.22439 | 103 ft | 0 kts | 50° |
| 2026-05-07 07:49 | 25.06253 | 121.22570 | 102 ft | 55 kts | 49° |
| 2026-05-07 07:49 | 25.06702 | 121.23139 | 102 ft | 138 kts | 49° |
| 2026-05-07 07:49 | 25.07475 | 121.24123 | 221 ft | 189 kts | 49° |
| 2026-05-07 07:49 | 25.08267 | 121.25153 | 1283 ft | 170 kts | 47° |
| 2026-05-07 07:50 | 25.09068 | 121.26189 | 1938 ft | 188 kts | 49° |
| 2026-05-07 07:50 | 25.09971 | 121.27371 | 2271 ft | 217 kts | 49° |
| 2026-05-07 07:50 | 25.11019 | 121.28745 | 2550 ft | 250 kts | 49° |
| 2026-05-07 07:50 | 25.12259 | 121.30187 | 3048 ft | 268 kts | 38° |
| 2026-05-07 07:51 | 25.13793 | 121.31419 | 3862 ft | 277 kts | 32° |
| 2026-05-07 07:51 | 25.15409 | 121.32595 | 4833 ft | 281 kts | 32° |
| 2026-05-07 07:51 | 25.17066 | 121.33787 | 5756 ft | 287 kts | 32° |
| 2026-05-07 07:51 | 25.18758 | 121.35012 | 6601 ft | 295 kts | 32° |
| 2026-05-07 07:52 | 25.20487 | 121.36276 | 7479 ft | 299 kts | 32° |
| 2026-05-07 07:52 | 25.22220 | 121.37555 | 8354 ft | 302 kts | 32° |
| 2026-05-07 07:52 | 25.23972 | 121.38856 | 9264 ft | 306 kts | 32° |
| 2026-05-07 07:52 | 25.25753 | 121.40185 | 10091 ft | 311 kts | 32° |
| 2026-05-07 07:53 | 25.27581 | 121.41553 | 10620 ft | 328 kts | 32° |
| 2026-05-07 07:53 | 25.29556 | 121.43030 | 10839 ft | 358 kts | 32° |
| 2026-05-07 07:53 | 25.31689 | 121.44629 | 11225 ft | 380 kts | 32° |
| 2026-05-07 07:53 | 25.33900 | 121.46292 | 11989 ft | 389 kts | 32° |
| 2026-05-07 07:54 | 25.36152 | 121.47991 | 12964 ft | 394 kts | 32° |
| 2026-05-07 07:54 | 25.38432 | 121.49714 | 13954 ft | 398 kts | 31° |
| 2026-05-07 07:54 | 25.40735 | 121.51454 | 14785 ft | 404 kts | 32° |
| 2026-05-07 07:54 | 25.43080 | 121.53226 | 15550 ft | 412 kts | 32° |
| 2026-05-07 07:55 | 25.45464 | 121.55029 | 16327 ft | 419 kts | 32° |
| 2026-05-07 07:55 | 25.47893 | 121.56866 | 17128 ft | 425 kts | 32° |
| 2026-05-07 07:55 | 25.50350 | 121.58725 | 17902 ft | 432 kts | 32° |
| 2026-05-07 07:55 | 25.52852 | 121.60619 | 18617 ft | 438 kts | 32° |
| 2026-05-07 07:56 | 25.55378 | 121.62533 | 19373 ft | 441 kts | 32° |
| 2026-05-07 07:56 | 25.57915 | 121.64457 | 20164 ft | 444 kts | 32° |
| 2026-05-07 07:56 | 25.60478 | 121.66402 | 20929 ft | 447 kts | 32° |
| 2026-05-07 07:56 | 25.63055 | 121.68357 | 21659 ft | 452 kts | 32° |
| 2026-05-07 07:57 | 25.65657 | 121.70331 | 22377 ft | 456 kts | 32° |
| 2026-05-07 07:57 | 25.68290 | 121.72331 | 23095 ft | 460 kts | 32° |
| 2026-05-07 07:57 | 25.70937 | 121.74343 | 23726 ft | 464 kts | 32° |
| 2026-05-07 07:57 | 25.73618 | 121.76382 | 24286 ft | 468 kts | 32° |
| 2026-05-07 07:58 | 25.76315 | 121.78435 | 24845 ft | 472 kts | 32° |
| 2026-05-07 07:58 | 25.79038 | 121.80507 | 25401 ft | 476 kts | 32° |
| 2026-05-07 07:58 | 25.81771 | 121.82600 | 25945 ft | 481 kts | 32° |
| 2026-05-07 07:58 | 25.84502 | 121.84775 | 26497 ft | 486 kts | 33° |
| 2026-05-07 07:59 | 25.87241 | 121.87006 | 27034 ft | 490 kts | 33° |
| 2026-05-07 07:59 | 25.89995 | 121.89260 | 27566 ft | 494 kts | 33° |
| 2026-05-07 07:59 | 25.92773 | 121.91527 | 28098 ft | 498 kts | 33° |
| 2026-05-07 07:59 | 25.95582 | 121.93810 | 28610 ft | 502 kts | 33° |
| 2026-05-07 08:00 | 25.98419 | 121.96110 | 29121 ft | 506 kts | 32° |
| 2026-05-07 08:00 | 26.01268 | 121.98416 | 29618 ft | 510 kts | 32° |
| 2026-05-07 08:00 | 26.04113 | 122.00711 | 30078 ft | 513 kts | 32° |
| 2026-05-07 08:00 | 26.07023 | 122.03007 | 30471 ft | 516 kts | 31° |
| 2026-05-07 08:01 | 26.09973 | 122.05305 | 30876 ft | 518 kts | 31° |
| 2026-05-07 08:01 | 26.12929 | 122.07598 | 31350 ft | 517 kts | 31° |
| 2026-05-07 08:01 | 26.15866 | 122.09880 | 31934 ft | 514 kts | 31° |
| 2026-05-07 08:01 | 26.18789 | 122.12159 | 32561 ft | 510 kts | 31° |
| 2026-05-07 08:02 | 26.21686 | 122.14425 | 33164 ft | 508 kts | 31° |
| 2026-05-07 08:02 | 26.24567 | 122.16682 | 33748 ft | 505 kts | 31° |
| 2026-05-07 08:02 | 26.27431 | 122.18930 | 34249 ft | 503 kts | 30° |
| 2026-05-07 08:02 | 26.30274 | 122.21163 | 34781 ft | 499 kts | 30° |
| 2026-05-07 08:03 | 26.33100 | 122.23385 | 35310 ft | 495 kts | 30° |
| 2026-05-07 08:03 | 26.35904 | 122.25591 | 35836 ft | 491 kts | 29° |
| 2026-05-07 08:03 | 26.38691 | 122.27783 | 36319 ft | 489 kts | 29° |
| 2026-05-07 08:03 | 26.41462 | 122.29963 | 36776 ft | 486 kts | 28° |
| 2026-05-07 08:04 | 26.44229 | 122.32140 | 36945 ft | 490 kts | 28° |
| 2026-05-07 08:04 | 26.49866 | 122.36570 | 36936 ft | 500 kts | 28° |
| 2026-05-07 08:05 | 26.55572 | 122.41071 | 36916 ft | 502 kts | 28° |
| 2026-05-07 08:05 | 26.61267 | 122.45577 | 36935 ft | 501 kts | 28° |
| 2026-05-07 08:06 | 26.66956 | 122.50081 | 36925 ft | 501 kts | 28° |
| 2026-05-07 08:06 | 26.72636 | 122.54579 | 36925 ft | 500 kts | 28° |
| 2026-05-07 08:07 | 26.78316 | 122.59082 | 36931 ft | 500 kts | 28° |
| 2026-05-07 08:07 | 26.83988 | 122.63586 | 36929 ft | 500 kts | 28° |
| 2026-05-07 08:08 | 26.89663 | 122.68098 | 36930 ft | 500 kts | 28° |
| 2026-05-07 08:08 | 26.95337 | 122.72615 | 36936 ft | 501 kts | 28° |
| 2026-05-07 08:09 | 27.01021 | 122.77147 | 36932 ft | 501 kts | 28° |
| 2026-05-07 08:09 | 27.06703 | 122.81682 | 36937 ft | 502 kts | 28° |
| 2026-05-07 08:10 | 27.12390 | 122.86243 | 36933 ft | 503 kts | 28° |
| 2026-05-07 08:10 | 27.18069 | 122.90838 | 36938 ft | 503 kts | 28° |
| 2026-05-07 08:11 | 27.23690 | 122.95530 | 36935 ft | 507 kts | 32° |
| 2026-05-07 08:11 | 27.29093 | 123.00685 | 36944 ft | 509 kts | 33° |
| 2026-05-07 08:12 | 27.34433 | 123.05858 | 36944 ft | 510 kts | 33° |
| 2026-05-07 08:12 | 27.39834 | 123.11034 | 36940 ft | 510 kts | 33° |
| 2026-05-07 08:13 | 27.45247 | 123.16211 | 36940 ft | 510 kts | 33° |
| 2026-05-07 08:13 | 27.50651 | 123.21403 | 36940 ft | 511 kts | 33° |
| 2026-05-07 08:14 | 27.56062 | 123.26616 | 36944 ft | 511 kts | 33° |
| 2026-05-07 08:14 | 27.61472 | 123.31835 | 36945 ft | 512 kts | 33° |
| 2026-05-07 08:14 | 27.64181 | 123.34450 | 37063 ft | 514 kts | 33° |
| 2026-05-07 08:15 | 27.66896 | 123.37073 | 37404 ft | 513 kts | 32° |
| 2026-05-07 08:15 | 27.69599 | 123.39689 | 37809 ft | 510 kts | 32° |
| 2026-05-07 08:15 | 27.72285 | 123.42291 | 38190 ft | 508 kts | 32° |
| 2026-05-07 08:15 | 27.74959 | 123.44881 | 38506 ft | 507 kts | 31° |
| 2026-05-07 08:16 | 27.77638 | 123.47475 | 38745 ft | 507 kts | 32° |
| 2026-05-07 08:16 | 27.80317 | 123.50069 | 38864 ft | 508 kts | 32° |
| 2026-05-07 08:16 | 27.82995 | 123.52666 | 38898 ft | 507 kts | 32° |
| 2026-05-07 08:17 | 27.88320 | 123.57840 | 38944 ft | 503 kts | 32° |
| 2026-05-07 08:17 | 27.93614 | 123.62987 | 38943 ft | 501 kts | 32° |
| 2026-05-07 08:18 | 27.98884 | 123.68116 | 38949 ft | 500 kts | 32° |
| 2026-05-07 08:18 | 28.04156 | 123.73251 | 38949 ft | 500 kts | 32° |
| 2026-05-07 08:19 | 28.09445 | 123.78406 | 38955 ft | 502 kts | 32° |
| 2026-05-07 08:19 | 28.14748 | 123.83585 | 38957 ft | 505 kts | 32° |
| 2026-05-07 08:20 | 28.20070 | 123.88791 | 38950 ft | 507 kts | 32° |
| 2026-05-07 08:20 | 28.25423 | 123.94036 | 38952 ft | 509 kts | 32° |
| 2026-05-07 08:21 | 28.30733 | 123.99390 | 38956 ft | 516 kts | 37° |
| 2026-05-07 08:21 | 28.35425 | 124.05704 | 38964 ft | 528 kts | 46° |
| 2026-05-07 08:22 | 28.39767 | 124.12465 | 38954 ft | 530 kts | 46° |
| 2026-05-07 08:22 | 28.44117 | 124.19239 | 38951 ft | 530 kts | 46° |
| 2026-05-07 08:23 | 28.48504 | 124.25979 | 38952 ft | 530 kts | 46° |
| 2026-05-07 08:23 | 28.52892 | 124.32694 | 38952 ft | 529 kts | 46° |
| 2026-05-07 08:24 | 28.57279 | 124.39421 | 38952 ft | 529 kts | 46° |
| 2026-05-07 08:24 | 28.61653 | 124.46146 | 38954 ft | 528 kts | 46° |
| 2026-05-07 08:25 | 28.66013 | 124.52864 | 38957 ft | 528 kts | 46° |
| 2026-05-07 08:25 | 28.70368 | 124.59581 | 38955 ft | 527 kts | 46° |
| 2026-05-07 08:26 | 28.76490 | 124.68089 | 38955 ft | 509 kts | 32° |
| 2026-05-07 08:26 | 28.82295 | 124.72380 | 38965 ft | 488 kts | 15° |
| 2026-05-07 08:27 | 28.89630 | 124.75347 | 38963 ft | 480 kts | 9° |
| 2026-05-07 08:27 | 28.94953 | 124.77375 | 38963 ft | 483 kts | 9° |
| 2026-05-07 08:28 | 29.01331 | 124.79863 | 38961 ft | 485 kts | 10° |
| 2026-05-07 08:28 | 29.07723 | 124.82407 | 38961 ft | 488 kts | 10° |
| 2026-05-07 08:29 | 29.14145 | 124.84979 | 38962 ft | 489 kts | 10° |
| 2026-05-07 08:29 | 29.20570 | 124.87555 | 38960 ft | 490 kts | 10° |
| 2026-05-07 08:30 | 29.26978 | 124.90124 | 38963 ft | 491 kts | 11° |
| 2026-05-07 08:30 | 29.33423 | 124.92711 | 38958 ft | 491 kts | 11° |
| 2026-05-07 08:31 | 29.39924 | 124.95324 | 38952 ft | 491 kts | 11° |
| 2026-05-07 08:31 | 29.46331 | 124.97902 | 38960 ft | 491 kts | 11° |
| 2026-05-07 08:32 | 29.52786 | 125.00503 | 38958 ft | 491 kts | 11° |
| 2026-05-07 08:32 | 29.59237 | 125.03105 | 38960 ft | 491 kts | 11° |
| 2026-05-07 08:33 | 29.65689 | 125.05712 | 38960 ft | 491 kts | 11° |
| 2026-05-07 08:33 | 29.72136 | 125.08321 | 38963 ft | 491 kts | 11° |
| 2026-05-07 08:34 | 29.78589 | 125.10935 | 38961 ft | 492 kts | 11° |
| 2026-05-07 08:34 | 29.85082 | 125.13569 | 38961 ft | 492 kts | 11° |
| 2026-05-07 08:35 | 29.91506 | 125.16179 | 38963 ft | 493 kts | 11° |
| 2026-05-07 08:35 | 29.97977 | 125.18812 | 38961 ft | 493 kts | 12° |
| 2026-05-07 08:36 | 30.04453 | 125.21452 | 38962 ft | 494 kts | 12° |
| 2026-05-07 08:36 | 30.10927 | 125.24101 | 38963 ft | 494 kts | 12° |
| 2026-05-07 08:37 | 30.17413 | 125.26761 | 38965 ft | 494 kts | 12° |
| 2026-05-07 08:37 | 30.23900 | 125.29424 | 38964 ft | 495 kts | 12° |
| 2026-05-07 08:38 | 30.30387 | 125.32091 | 38964 ft | 495 kts | 12° |
| 2026-05-07 08:38 | 30.36875 | 125.34762 | 38966 ft | 495 kts | 12° |
| 2026-05-07 08:39 | 30.43362 | 125.37436 | 38960 ft | 494 kts | 13° |
| 2026-05-07 08:39 | 30.49844 | 125.40112 | 38960 ft | 494 kts | 13° |
| 2026-05-07 08:40 | 30.56317 | 125.42788 | 38964 ft | 494 kts | 13° |
| 2026-05-07 08:40 | 30.62788 | 125.45466 | 38963 ft | 493 kts | 13° |
| 2026-05-07 08:41 | 30.69255 | 125.48147 | 38962 ft | 493 kts | 13° |
| 2026-05-07 08:41 | 30.75713 | 125.50828 | 38964 ft | 493 kts | 13° |
| 2026-05-07 08:42 | 30.82170 | 125.53513 | 38962 ft | 493 kts | 13° |
| 2026-05-07 08:42 | 30.88629 | 125.56202 | 38965 ft | 493 kts | 13° |
| 2026-05-07 08:43 | 30.95089 | 125.58895 | 38966 ft | 493 kts | 13° |
| 2026-05-07 08:43 | 31.01542 | 125.61589 | 38968 ft | 493 kts | 13° |
| 2026-05-07 08:44 | 31.07998 | 125.64289 | 38965 ft | 492 kts | 13° |
| 2026-05-07 08:44 | 31.14405 | 125.66972 | 38957 ft | 492 kts | 13° |
| 2026-05-07 08:45 | 31.20893 | 125.69693 | 38961 ft | 492 kts | 13° |
| 2026-05-07 08:45 | 31.27295 | 125.72382 | 38965 ft | 492 kts | 13° |
| 2026-05-07 08:46 | 31.33749 | 125.75096 | 38964 ft | 492 kts | 13° |
| 2026-05-07 08:46 | 31.40192 | 125.77810 | 38964 ft | 492 kts | 13° |
| 2026-05-07 08:47 | 31.46646 | 125.80533 | 38963 ft | 492 kts | 13° |
| 2026-05-07 08:47 | 31.53089 | 125.83255 | 38966 ft | 493 kts | 13° |
| 2026-05-07 08:48 | 31.59537 | 125.85983 | 38966 ft | 493 kts | 13° |
| 2026-05-07 08:48 | 31.65992 | 125.88700 | 38964 ft | 493 kts | 13° |
| 2026-05-07 08:49 | 31.72453 | 125.91417 | 38966 ft | 493 kts | 13° |
| 2026-05-07 08:49 | 31.78913 | 125.94141 | 38966 ft | 493 kts | 13° |
| 2026-05-07 08:50 | 31.85333 | 125.96847 | 38964 ft | 493 kts | 13° |
| 2026-05-07 08:50 | 31.91780 | 125.99568 | 38965 ft | 493 kts | 13° |
| 2026-05-07 08:51 | 31.98242 | 126.02301 | 38964 ft | 493 kts | 13° |
| 2026-05-07 08:51 | 32.04699 | 126.05035 | 38962 ft | 493 kts | 13° |
| 2026-05-07 08:52 | 32.11154 | 126.07769 | 38962 ft | 493 kts | 13° |
| 2026-05-07 08:52 | 32.17612 | 126.10503 | 38961 ft | 493 kts | 13° |
| 2026-05-07 08:53 | 32.24066 | 126.13241 | 38967 ft | 493 kts | 13° |
| 2026-05-07 08:53 | 32.30527 | 126.15986 | 38964 ft | 493 kts | 13° |
| 2026-05-07 08:54 | 32.36984 | 126.18734 | 38962 ft | 493 kts | 13° |
| 2026-05-07 08:54 | 32.43435 | 126.21485 | 38961 ft | 493 kts | 13° |
| 2026-05-07 08:55 | 32.49889 | 126.24241 | 38962 ft | 493 kts | 13° |
| 2026-05-07 08:55 | 32.56342 | 126.27002 | 38964 ft | 493 kts | 13° |
| 2026-05-07 08:56 | 32.62786 | 126.29772 | 38962 ft | 493 kts | 13° |
| 2026-05-07 08:56 | 32.69191 | 126.32534 | 38962 ft | 493 kts | 13° |
| 2026-05-07 08:57 | 32.75640 | 126.35317 | 38964 ft | 493 kts | 13° |
| 2026-05-07 08:57 | 32.82093 | 126.38106 | 38959 ft | 494 kts | 14° |
| 2026-05-07 08:58 | 32.88546 | 126.40899 | 38961 ft | 494 kts | 14° |
| 2026-05-07 08:58 | 32.95053 | 126.43720 | 38960 ft | 494 kts | 14° |
| 2026-05-07 08:59 | 33.01480 | 126.46509 | 38960 ft | 495 kts | 14° |
| 2026-05-07 08:59 | 33.07966 | 126.49287 | 38961 ft | 495 kts | 13° |
| 2026-05-07 09:00 | 33.14313 | 126.51997 | 38965 ft | 495 kts | 13° |
| 2026-05-07 09:00 | 33.20442 | 126.54624 | 38954 ft | 496 kts | 13° |
| 2026-05-07 09:01 | 33.26940 | 126.57418 | 38953 ft | 496 kts | 14° |
| 2026-05-07 09:01 | 33.33431 | 126.60213 | 38945 ft | 496 kts | 13° |
| 2026-05-07 09:02 | 33.39932 | 126.63019 | 38944 ft | 496 kts | 14° |
| 2026-05-07 09:02 | 33.46415 | 126.65857 | 38948 ft | 497 kts | 14° |
| 2026-05-07 09:03 | 33.52912 | 126.68651 | 38945 ft | 494 kts | 10° |
| 2026-05-07 09:03 | 33.59563 | 126.70369 | 38940 ft | 484 kts | 359° |
| 2026-05-07 09:04 | 33.66287 | 126.71052 | 38958 ft | 487 kts | 357° |
| 2026-05-07 09:04 | 33.73085 | 126.71692 | 38956 ft | 492 kts | 358° |
| 2026-05-07 09:05 | 33.79916 | 126.72414 | 38957 ft | 495 kts | 358° |
| 2026-05-07 09:05 | 33.86782 | 126.73158 | 38951 ft | 495 kts | 358° |
| 2026-05-07 09:06 | 33.93641 | 126.73884 | 38948 ft | 494 kts | 358° |
| 2026-05-07 09:06 | 34.00479 | 126.74594 | 38943 ft | 492 kts | 358° |
| 2026-05-07 09:07 | 34.07296 | 126.75303 | 38953 ft | 490 kts | 358° |
| 2026-05-07 09:07 | 34.14087 | 126.76013 | 38944 ft | 489 kts | 358° |
| 2026-05-07 09:08 | 34.20861 | 126.76724 | 38936 ft | 488 kts | 358° |
| 2026-05-07 09:08 | 34.27584 | 126.77429 | 38945 ft | 488 kts | 358° |
| 2026-05-07 09:09 | 34.34395 | 126.78146 | 38949 ft | 489 kts | 358° |
| 2026-05-07 09:09 | 34.40030 | 126.78742 | 38945 ft | 490 kts | 358° |
| 2026-05-07 09:10 | 34.46840 | 126.79462 | 38946 ft | 492 kts | 358° |
| 2026-05-07 09:10 | 34.54792 | 126.80305 | 38949 ft | 495 kts | 358° |
| 2026-05-07 09:11 | 34.60556 | 126.80917 | 38947 ft | 497 kts | 358° |
| 2026-05-07 09:11 | 34.67466 | 126.81653 | 38939 ft | 500 kts | 358° |
| 2026-05-07 09:12 | 34.74404 | 126.82393 | 38949 ft | 501 kts | 358° |
| 2026-05-07 09:12 | 34.81367 | 126.83137 | 38947 ft | 503 kts | 358° |
| 2026-05-07 09:13 | 34.88348 | 126.83885 | 38939 ft | 503 kts | 358° |
| 2026-05-07 09:13 | 34.95322 | 126.84633 | 38918 ft | 500 kts | 357° |
| 2026-05-07 09:14 | 34.98765 | 126.85006 | 38806 ft | 495 kts | 357° |
| 2026-05-07 09:14 | 35.02198 | 126.85375 | 38527 ft | 494 kts | 357° |
| 2026-05-07 09:14 | 35.05622 | 126.85740 | 38098 ft | 496 kts | 357° |
| 2026-05-07 09:14 | 35.09071 | 126.86107 | 37631 ft | 498 kts | 357° |
| 2026-05-07 09:15 | 35.12528 | 126.86478 | 37175 ft | 500 kts | 357° |
| 2026-05-07 09:15 | 35.16003 | 126.86854 | 36717 ft | 501 kts | 357° |
| 2026-05-07 09:15 | 35.19480 | 126.87231 | 36252 ft | 503 kts | 357° |
| 2026-05-07 09:15 | 35.22977 | 126.87612 | 35753 ft | 505 kts | 357° |
| 2026-05-07 09:16 | 35.26487 | 126.87994 | 35247 ft | 508 kts | 357° |
| 2026-05-07 09:16 | 35.30018 | 126.88379 | 34744 ft | 510 kts | 357° |
| 2026-05-07 09:16 | 35.33554 | 126.88765 | 34230 ft | 512 kts | 358° |
| 2026-05-07 09:16 | 35.37103 | 126.89153 | 33644 ft | 514 kts | 358° |
| 2026-05-07 09:17 | 35.40677 | 126.89545 | 33048 ft | 515 kts | 358° |
| 2026-05-07 09:17 | 35.44249 | 126.89936 | 32500 ft | 515 kts | 358° |
| 2026-05-07 09:17 | 35.47816 | 126.90329 | 32098 ft | 512 kts | 357° |
| 2026-05-07 09:17 | 35.51347 | 126.90719 | 31784 ft | 507 kts | 357° |
| 2026-05-07 09:18 | 35.54855 | 126.91104 | 31470 ft | 504 kts | 357° |
| 2026-05-07 09:18 | 35.58338 | 126.91486 | 31133 ft | 501 kts | 357° |
| 2026-05-07 09:18 | 35.61792 | 126.91862 | 30777 ft | 498 kts | 357° |
| 2026-05-07 09:18 | 35.65242 | 126.92239 | 30426 ft | 496 kts | 356° |
| 2026-05-07 09:19 | 35.68675 | 126.92614 | 30100 ft | 494 kts | 356° |
| 2026-05-07 09:19 | 35.72044 | 126.92984 | 29742 ft | 491 kts | 356° |
| 2026-05-07 09:19 | 35.75443 | 126.93357 | 29372 ft | 488 kts | 356° |
| 2026-05-07 09:19 | 35.78817 | 126.93727 | 28995 ft | 486 kts | 356° |
| 2026-05-07 09:20 | 35.82220 | 126.94101 | 28608 ft | 484 kts | 356° |
| 2026-05-07 09:20 | 35.85569 | 126.94468 | 28246 ft | 481 kts | 356° |
| 2026-05-07 09:20 | 35.88894 | 126.94834 | 27881 ft | 479 kts | 356° |
| 2026-05-07 09:20 | 35.92167 | 126.95197 | 27527 ft | 477 kts | 356° |
| 2026-05-07 09:21 | 35.95469 | 126.95565 | 27184 ft | 476 kts | 356° |
| 2026-05-07 09:21 | 35.98764 | 126.95934 | 26843 ft | 474 kts | 356° |
| 2026-05-07 09:21 | 36.02034 | 126.96300 | 26502 ft | 472 kts | 356° |
| 2026-05-07 09:21 | 36.05298 | 126.96665 | 26180 ft | 470 kts | 356° |
| 2026-05-07 09:22 | 36.08541 | 126.97028 | 25736 ft | 467 kts | 356° |
| 2026-05-07 09:22 | 36.11774 | 126.97391 | 25195 ft | 464 kts | 356° |
| 2026-05-07 09:22 | 36.14972 | 126.97750 | 24655 ft | 460 kts | 356° |
| 2026-05-07 09:22 | 36.18153 | 126.98106 | 24092 ft | 457 kts | 356° |
| 2026-05-07 09:23 | 36.21314 | 126.98460 | 23552 ft | 455 kts | 357° |
| 2026-05-07 09:23 | 36.24462 | 126.98813 | 22916 ft | 452 kts | 357° |
| 2026-05-07 09:23 | 36.27580 | 126.99163 | 22343 ft | 448 kts | 357° |
| 2026-05-07 09:23 | 36.30670 | 126.99510 | 21795 ft | 444 kts | 357° |
| 2026-05-07 09:24 | 36.33737 | 126.99855 | 21257 ft | 440 kts | 357° |
| 2026-05-07 09:24 | 36.36776 | 127.00197 | 20731 ft | 436 kts | 358° |
| 2026-05-07 09:24 | 36.39779 | 127.00415 | 20194 ft | 428 kts | 352° |
| 2026-05-07 09:24 | 36.42731 | 127.00330 | 19675 ft | 422 kts | 350° |
| 2026-05-07 09:25 | 36.45651 | 127.00188 | 19152 ft | 418 kts | 350° |
| 2026-05-07 09:25 | 36.48552 | 127.00045 | 18604 ft | 415 kts | 351° |
| 2026-05-07 09:25 | 36.51428 | 126.99918 | 18095 ft | 412 kts | 351° |
| 2026-05-07 09:25 | 36.54292 | 126.99802 | 17501 ft | 410 kts | 351° |
| 2026-05-07 09:26 | 36.57132 | 126.99696 | 16946 ft | 407 kts | 351° |
| 2026-05-07 09:26 | 36.59930 | 126.99599 | 16703 ft | 396 kts | 351° |
| 2026-05-07 09:26 | 36.62643 | 126.99507 | 16511 ft | 384 kts | 351° |
| 2026-05-07 09:26 | 36.65233 | 126.99419 | 16377 ft | 371 kts | 351° |
| 2026-05-07 09:27 | 36.67776 | 126.99325 | 16220 ft | 360 kts | 351° |
| 2026-05-07 09:27 | 36.70249 | 126.99233 | 16069 ft | 351 kts | 350° |
| 2026-05-07 09:27 | 36.74838 | 126.98531 | 15568 ft | 311 kts | 326° |
| 2026-05-07 09:28 | 36.76730 | 126.97330 | 15250 ft | 305 kts | 324° |
| 2026-05-07 09:28 | 36.78621 | 126.96118 | 14852 ft | 306 kts | 324° |
| 2026-05-07 09:28 | 36.80519 | 126.94911 | 14525 ft | 305 kts | 324° |
| 2026-05-07 09:28 | 36.82416 | 126.93712 | 14170 ft | 304 kts | 325° |
| 2026-05-07 09:29 | 36.84300 | 126.92530 | 13925 ft | 300 kts | 325° |
| 2026-05-07 09:29 | 36.86137 | 126.91384 | 13686 ft | 290 kts | 325° |
| 2026-05-07 09:29 | 36.87951 | 126.90250 | 12994 ft | 290 kts | 325° |
| 2026-05-07 09:29 | 36.89722 | 126.89145 | 12573 ft | 280 kts | 325° |
| 2026-05-07 09:30 | 36.91466 | 126.88055 | 12204 ft | 280 kts | 325° |
| 2026-05-07 09:30 | 36.93200 | 126.86967 | 11840 ft | 280 kts | 325° |
| 2026-05-07 09:30 | 36.94941 | 126.85875 | 11482 ft | 280 kts | 325° |
| 2026-05-07 09:30 | 36.96683 | 126.84783 | 11118 ft | 281 kts | 325° |
| 2026-05-07 09:31 | 36.98433 | 126.83686 | 10751 ft | 282 kts | 325° |
| 2026-05-07 09:31 | 37.00187 | 126.82587 | 10380 ft | 282 kts | 326° |
| 2026-05-07 09:31 | 37.01951 | 126.81483 | 10015 ft | 283 kts | 326° |
| 2026-05-07 09:31 | 37.03714 | 126.80378 | 9648 ft | 284 kts | 326° |
| 2026-05-07 09:32 | 37.05470 | 126.79278 | 9239 ft | 278 kts | 327° |
| 2026-05-07 09:32 | 37.07170 | 126.78216 | 8858 ft | 268 kts | 327° |
| 2026-05-07 09:32 | 37.08829 | 126.77176 | 8506 ft | 261 kts | 327° |
| 2026-05-07 09:32 | 37.10450 | 126.76156 | 8224 ft | 259 kts | 327° |
| 2026-05-07 09:33 | 37.12032 | 126.75163 | 7857 ft | 250 kts | 328° |
| 2026-05-07 09:33 | 37.13541 | 126.74217 | 7524 ft | 241 kts | 328° |
| 2026-05-07 09:33 | 37.15009 | 126.73296 | 7203 ft | 231 kts | 328° |
| 2026-05-07 09:33 | 37.16406 | 126.72383 | 6906 ft | 221 kts | 323° |
| 2026-05-07 09:34 | 37.17663 | 126.71310 | 6634 ft | 219 kts | 321° |
| 2026-05-07 09:34 | 37.18907 | 126.70189 | 6338 ft | 221 kts | 321° |
| 2026-05-07 09:34 | 37.20101 | 126.69116 | 6031 ft | 222 kts | 321° |
| 2026-05-07 09:34 | 37.21357 | 126.67990 | 5723 ft | 222 kts | 322° |
| 2026-05-07 09:35 | 37.22619 | 126.66867 | 5432 ft | 222 kts | 322° |
| 2026-05-07 09:35 | 37.23879 | 126.65753 | 5117 ft | 222 kts | 323° |
| 2026-05-07 09:35 | 37.25144 | 126.64653 | 4838 ft | 220 kts | 323° |
| 2026-05-07 09:35 | 37.26397 | 126.63554 | 4559 ft | 219 kts | 323° |
| 2026-05-07 09:36 | 37.27640 | 126.62455 | 4274 ft | 218 kts | 323° |
| 2026-05-07 09:36 | 37.28876 | 126.61360 | 3985 ft | 217 kts | 323° |
| 2026-05-07 09:36 | 37.30103 | 126.60272 | 3710 ft | 215 kts | 323° |
| 2026-05-07 09:36 | 37.31323 | 126.59188 | 3462 ft | 213 kts | 323° |
| 2026-05-07 09:37 | 37.32532 | 126.58115 | 3197 ft | 211 kts | 323° |
| 2026-05-07 09:37 | 37.33697 | 126.57082 | 2915 ft | 198 kts | 323° |
| 2026-05-07 09:37 | 37.34775 | 126.56126 | 2708 ft | 182 kts | 323° |
| 2026-05-07 09:37 | 37.35781 | 126.55233 | 2446 ft | 171 kts | 323° |
| 2026-05-07 09:38 | 37.36710 | 126.54406 | 2225 ft | 158 kts | 323° |
| 2026-05-07 09:38 | 37.37576 | 126.53637 | 2004 ft | 147 kts | 323° |
| 2026-05-07 09:38 | 37.38373 | 126.52929 | 1823 ft | 135 kts | 322° |
| 2026-05-07 09:38 | 37.39127 | 126.52257 | 1662 ft | 136 kts | 323° |
| 2026-05-07 09:39 | 37.39897 | 126.51572 | 1470 ft | 135 kts | 322° |
| 2026-05-07 09:39 | 37.40674 | 126.50880 | 1293 ft | 136 kts | 322° |
| 2026-05-07 09:39 | 37.41444 | 126.50196 | 1097 ft | 138 kts | 322° |
| 2026-05-07 09:39 | 37.42231 | 126.49494 | 908 ft | 140 kts | 323° |
| 2026-05-07 09:40 | 37.43019 | 126.48795 | 689 ft | 137 kts | 321° |
| 2026-05-07 09:40 | 37.43801 | 126.48097 | 494 ft | 139 kts | 322° |
| 2026-05-07 09:40 | 37.44603 | 126.47402 | 333 ft | 139 kts | 322° |
| 2026-05-07 09:40 | 37.45369 | 126.46706 | 161 ft | 134 kts | 323° |
| 2026-05-07 09:41 | 37.46123 | 126.46032 | 39 ft | 128 kts | 324° |
| 2026-05-07 09:41 | 37.46737 | 126.45492 | 37 ft | 81 kts | 324° |
| 2026-05-07 09:41 | 37.47066 | 126.45199 | 37 ft | 35 kts | 324° |
| 2026-05-07 09:41 | 37.47216 | 126.44981 | 37 ft | 21 kts | 299° |
| 2026-05-07 09:42 | 37.47270 | 126.44847 | 37 ft | 17 kts | 295° |
| 2026-05-07 09:42 | 37.47307 | 126.44750 | 37 ft | 12 kts | 300° |
| 2026-05-07 09:42 | 37.47358 | 126.44674 | 37 ft | 10 kts | 308° |
| 2026-05-07 09:42 | 37.47363 | 126.44588 | 37 ft | 10 kts | 248° |
| 2026-05-07 09:43 | 37.47322 | 126.44509 | 37 ft | 11 kts | 234° |
| 2026-05-07 09:43 | 37.47277 | 126.44431 | 37 ft | 11 kts | 234° |
| 2026-05-07 09:43 | 37.47233 | 126.44353 | 37 ft | 11 kts | 234° |
| 2026-05-07 09:43 | 37.47189 | 126.44276 | 38 ft | 11 kts | 234° |
| 2026-05-07 09:44 | 37.47145 | 126.44198 | 38 ft | 11 kts | 235° |
| 2026-05-07 09:44 | 37.47101 | 126.44120 | 38 ft | 11 kts | 234° |
| 2026-05-07 09:44 | 37.47058 | 126.44042 | 38 ft | 11 kts | 235° |
| 2026-05-07 09:44 | 37.47034 | 126.43960 | 38 ft | 7 kts | 254° |
| 2026-05-07 09:45 | 37.47010 | 126.43905 | 38 ft | 6 kts | 236° |
| 2026-05-07 09:45 | 37.46992 | 126.43872 | 38 ft | 3 kts | 235° |
| 2026-05-07 09:45 | 37.46981 | 126.43853 | 38 ft | 0 kts | 235° |